sensor_id;sensor_type;location;lat;lon;timestamp;temperature;humidity
19908;DHT22;10116;53.112;7.356;2022-12-07T00:00:28;25.00;55.10
19908;DHT22;10116;53.112;7.356;2022-12-07T00:02:53;25.00;55.20
19908;DHT22;10116;53.112;7.356;2022-12-07T00:05:19;25.00;54.60
19908;DHT22;10116;53.112;7.356;2022-12-07T00:07:44;25.00;55.00
19908;DHT22;10116;53.112;7.356;2022-12-07T00:10:10;25.00;54.60
19908;DHT22;10116;53.112;7.356;2022-12-07T00:12:36;25.00;54.40
19908;DHT22;10116;53.112;7.356;2022-12-07T00:15:02;25.00;54.30
19908;DHT22;10116;53.112;7.356;2022-12-07T00:17:27;25.00;54.30
19908;DHT22;10116;53.112;7.356;2022-12-07T00:19:53;25.00;54.50
19908;DHT22;10116;53.112;7.356;2022-12-07T00:22:19;25.00;54.80
19908;DHT22;10116;53.112;7.356;2022-12-07T00:24:44;25.00;54.50
19908;DHT22;10116;53.112;7.356;2022-12-07T00:27:10;25.00;54.70
19908;DHT22;10116;53.112;7.356;2022-12-07T00:29:35;25.00;54.00
19908;DHT22;10116;53.112;7.356;2022-12-07T00:32:02;25.00;54.20
19908;DHT22;10116;53.112;7.356;2022-12-07T00:34:28;25.00;54.40
19908;DHT22;10116;53.112;7.356;2022-12-07T00:36:53;25.00;53.80
19908;DHT22;10116;53.112;7.356;2022-12-07T00:39:19;25.00;55.00
19908;DHT22;10116;53.112;7.356;2022-12-07T00:41:45;25.00;67.90
19908;DHT22;10116;53.112;7.356;2022-12-07T00:44:11;25.00;53.90
19908;DHT22;10116;53.112;7.356;2022-12-07T00:46:36;25.00;54.60
19908;DHT22;10116;53.112;7.356;2022-12-07T00:49:02;25.00;53.90
19908;DHT22;10116;53.112;7.356;2022-12-07T00:51:28;25.10;53.60
19908;DHT22;10116;53.112;7.356;2022-12-07T00:53:53;25.10;54.10
19908;DHT22;10116;53.112;7.356;2022-12-07T00:56:22;25.00;54.10
19908;DHT22;10116;53.112;7.356;2022-12-07T00:59:02;25.10;54.40
19908;DHT22;10116;53.112;7.356;2022-12-07T01:01:30;25.10;54.10
19908;DHT22;10116;53.112;7.356;2022-12-07T01:03:56;25.10;53.80
19908;DHT22;10116;53.112;7.356;2022-12-07T01:06:23;25.10;67.80
19908;DHT22;10116;53.112;7.356;2022-12-07T01:08:49;25.10;54.10
19908;DHT22;10116;53.112;7.356;2022-12-07T01:11:18;25.10;53.60
19908;DHT22;10116;53.112;7.356;2022-12-07T01:13:44;25.10;54.50
19908;DHT22;10116;53.112;7.356;2022-12-07T01:16:12;25.10;54.40
19908;DHT22;10116;53.112;7.356;2022-12-07T01:18:39;25.10;54.30
19908;DHT22;10116;53.112;7.356;2022-12-07T01:21:08;25.10;54.20
19908;DHT22;10116;53.112;7.356;2022-12-07T01:23:35;25.10;54.70
19908;DHT22;10116;53.112;7.356;2022-12-07T01:26:04;25.10;53.80
19908;DHT22;10116;53.112;7.356;2022-12-07T01:28:31;25.10;54.10
19908;DHT22;10116;53.112;7.356;2022-12-07T01:31:08;25.10;53.80
19908;DHT22;10116;53.112;7.356;2022-12-07T01:33:38;25.10;53.80
19908;DHT22;10116;53.112;7.356;2022-12-07T01:36:25;25.10;53.80
19908;DHT22;10116;53.112;7.356;2022-12-07T01:38:55;25.10;54.00
19908;DHT22;10116;53.112;7.356;2022-12-07T01:41:22;25.10;53.90
19908;DHT22;10116;53.112;7.356;2022-12-07T01:44:11;25.10;54.60
19908;DHT22;10116;53.112;7.356;2022-12-07T01:46:37;25.10;53.80
19908;DHT22;10116;53.112;7.356;2022-12-07T01:49:06;25.10;53.50
19908;DHT22;10116;53.112;7.356;2022-12-07T01:51:34;25.10;54.10
19908;DHT22;10116;53.112;7.356;2022-12-07T01:54:01;25.10;53.80
19908;DHT22;10116;53.112;7.356;2022-12-07T01:56:28;25.10;54.10
19908;DHT22;10116;53.112;7.356;2022-12-07T01:58:55;25.20;54.10
19908;DHT22;10116;53.112;7.356;2022-12-07T02:01:21;25.20;53.60
19908;DHT22;10116;53.112;7.356;2022-12-07T02:03:47;25.20;54.50
19908;DHT22;10116;53.112;7.356;2022-12-07T02:06:16;25.20;53.50
19908;DHT22;10116;53.112;7.356;2022-12-07T02:08:44;25.20;53.50
19908;DHT22;10116;53.112;7.356;2022-12-07T02:11:10;25.20;54.60
19908;DHT22;10116;53.112;7.356;2022-12-07T02:13:38;25.20;53.00
19908;DHT22;10116;53.112;7.356;2022-12-07T02:27:37;25.20;53.70
19908;DHT22;10116;53.112;7.356;2022-12-07T02:30:16;25.20;53.50
19908;DHT22;10116;53.112;7.356;2022-12-07T02:32:54;25.20;53.40
19908;DHT22;10116;53.112;7.356;2022-12-07T02:43:16;25.20;53.00
19908;DHT22;10116;53.112;7.356;2022-12-07T02:45:44;25.20;53.10
19908;DHT22;10116;53.112;7.356;2022-12-07T02:48:14;25.20;53.50
19908;DHT22;10116;53.112;7.356;2022-12-07T02:50:48;25.20;53.80
19908;DHT22;10116;53.112;7.356;2022-12-07T02:53:34;25.20;53.10
19908;DHT22;10116;53.112;7.356;2022-12-07T03:04:08;25.20;53.40
19908;DHT22;10116;53.112;7.356;2022-12-07T03:06:43;25.20;53.50
19908;DHT22;10116;53.112;7.356;2022-12-07T03:09:13;25.20;54.30
19908;DHT22;10116;53.112;7.356;2022-12-07T03:11:55;25.20;53.70
19908;DHT22;10116;53.112;7.356;2022-12-07T03:14:35;25.20;53.40
19908;DHT22;10116;53.112;7.356;2022-12-07T03:17:18;25.20;53.30
19908;DHT22;10116;53.112;7.356;2022-12-07T03:19:46;25.20;53.30
19908;DHT22;10116;53.112;7.356;2022-12-07T03:22:15;25.20;53.90
19908;DHT22;10116;53.112;7.356;2022-12-07T03:24:50;25.20;53.90
19908;DHT22;10116;53.112;7.356;2022-12-07T03:27:24;25.20;53.50
19908;DHT22;10116;53.112;7.356;2022-12-07T03:30:00;25.20;52.90
19908;DHT22;10116;53.112;7.356;2022-12-07T03:32:42;25.20;53.10
19908;DHT22;10116;53.112;7.356;2022-12-07T03:35:11;25.20;53.70
19908;DHT22;10116;53.112;7.356;2022-12-07T03:40:33;25.20;53.20
19908;DHT22;10116;53.112;7.356;2022-12-07T03:43:01;25.20;53.90
19908;DHT22;10116;53.112;7.356;2022-12-07T03:45:38;25.20;53.10
19908;DHT22;10116;53.112;7.356;2022-12-07T03:48:25;25.20;53.20
19908;DHT22;10116;53.112;7.356;2022-12-07T03:51:01;25.30;53.80
19908;DHT22;10116;53.112;7.356;2022-12-07T03:53:40;25.30;53.80
19908;DHT22;10116;53.112;7.356;2022-12-07T03:56:09;25.30;53.40
19908;DHT22;10116;53.112;7.356;2022-12-07T03:58:36;25.30;53.90
19908;DHT22;10116;53.112;7.356;2022-12-07T04:01:02;25.20;53.90
19908;DHT22;10116;53.112;7.356;2022-12-07T04:03:28;25.30;52.90
19908;DHT22;10116;53.112;7.356;2022-12-07T04:05:54;25.30;53.50
19908;DHT22;10116;53.112;7.356;2022-12-07T04:08:20;25.30;52.90
19908;DHT22;10116;53.112;7.356;2022-12-07T04:10:45;25.30;53.60
19908;DHT22;10116;53.112;7.356;2022-12-07T04:13:11;25.30;53.50
19908;DHT22;10116;53.112;7.356;2022-12-07T04:15:36;25.30;53.30
19908;DHT22;10116;53.112;7.356;2022-12-07T04:18:02;25.30;52.90
19908;DHT22;10116;53.112;7.356;2022-12-07T04:20:28;25.30;53.40
19908;DHT22;10116;53.112;7.356;2022-12-07T04:22:53;25.30;53.30
19908;DHT22;10116;53.112;7.356;2022-12-07T04:25:19;25.30;53.70
19908;DHT22;10116;53.112;7.356;2022-12-07T04:27:44;25.40;53.80
19908;DHT22;10116;53.112;7.356;2022-12-07T04:30:10;25.40;54.70
19908;DHT22;10116;53.112;7.356;2022-12-07T04:32:36;25.50;54.60
19908;DHT22;10116;53.112;7.356;2022-12-07T04:35:02;25.50;55.00
19908;DHT22;10116;53.112;7.356;2022-12-07T04:37:28;25.60;55.80
19908;DHT22;10116;53.112;7.356;2022-12-07T04:39:53;25.60;56.90
19908;DHT22;10116;53.112;7.356;2022-12-07T04:42:19;25.70;56.40
19908;DHT22;10116;53.112;7.356;2022-12-07T04:44:44;25.70;57.00
19908;DHT22;10116;53.112;7.356;2022-12-07T04:47:10;25.80;57.00
19908;DHT22;10116;53.112;7.356;2022-12-07T04:49:35;25.80;57.40
19908;DHT22;10116;53.112;7.356;2022-12-07T04:52:01;25.80;56.90
19908;DHT22;10116;53.112;7.356;2022-12-07T04:54:28;25.80;56.30
19908;DHT22;10116;53.112;7.356;2022-12-07T04:56:54;25.80;56.50
19908;DHT22;10116;53.112;7.356;2022-12-07T04:59:19;25.80;56.60
19908;DHT22;10116;53.112;7.356;2022-12-07T05:01:45;25.80;56.90
19908;DHT22;10116;53.112;7.356;2022-12-07T05:04:11;25.80;56.30
19908;DHT22;10116;53.112;7.356;2022-12-07T05:06:36;25.80;71.10
19908;DHT22;10116;53.112;7.356;2022-12-07T05:09:03;25.80;56.80
19908;DHT22;10116;53.112;7.356;2022-12-07T05:11:29;25.80;56.10
19908;DHT22;10116;53.112;7.356;2022-12-07T05:14:06;25.80;55.60
19908;DHT22;10116;53.112;7.356;2022-12-07T05:16:32;25.80;55.50
19908;DHT22;10116;53.112;7.356;2022-12-07T05:18:58;25.80;56.00
19908;DHT22;10116;53.112;7.356;2022-12-07T05:21:24;25.80;55.00
19908;DHT22;10116;53.112;7.356;2022-12-07T05:23:50;25.80;55.60
19908;DHT22;10116;53.112;7.356;2022-12-07T05:26:15;25.80;55.10
19908;DHT22;10116;53.112;7.356;2022-12-07T05:28:41;25.80;54.70
19908;DHT22;10116;53.112;7.356;2022-12-07T05:31:07;25.90;56.10
19908;DHT22;10116;53.112;7.356;2022-12-07T05:33:32;25.90;55.20
19908;DHT22;10116;53.112;7.356;2022-12-07T05:35:58;25.90;55.80
19908;DHT22;10116;53.112;7.356;2022-12-07T05:38:23;26.00;55.60
19908;DHT22;10116;53.112;7.356;2022-12-07T05:40:50;25.90;56.10
19908;DHT22;10116;53.112;7.356;2022-12-07T05:43:16;26.00;55.50
19908;DHT22;10116;53.112;7.356;2022-12-07T05:45:41;26.00;55.40
19908;DHT22;10116;53.112;7.356;2022-12-07T05:48:07;26.00;55.30
19908;DHT22;10116;53.112;7.356;2022-12-07T05:50:33;26.00;55.60
19908;DHT22;10116;53.112;7.356;2022-12-07T05:52:58;26.00;55.20
19908;DHT22;10116;53.112;7.356;2022-12-07T05:55:24;26.00;55.00
19908;DHT22;10116;53.112;7.356;2022-12-07T05:57:49;26.00;56.00
19908;DHT22;10116;53.112;7.356;2022-12-07T06:00:34;26.00;54.70
19908;DHT22;10116;53.112;7.356;2022-12-07T06:02:59;26.00;54.70
19908;DHT22;10116;53.112;7.356;2022-12-07T06:05:25;26.00;54.80
19908;DHT22;10116;53.112;7.356;2022-12-07T06:07:51;26.00;54.60
19908;DHT22;10116;53.112;7.356;2022-12-07T06:10:16;26.00;54.50
19908;DHT22;10116;53.112;7.356;2022-12-07T06:12:42;26.00;54.70
19908;DHT22;10116;53.112;7.356;2022-12-07T06:15:09;26.00;54.20
19908;DHT22;10116;53.112;7.356;2022-12-07T06:17:35;26.00;53.70
19908;DHT22;10116;53.112;7.356;2022-12-07T06:20:02;26.00;54.60
19908;DHT22;10116;53.112;7.356;2022-12-07T06:22:28;26.00;53.60
19908;DHT22;10116;53.112;7.356;2022-12-07T06:24:53;26.00;53.60
19908;DHT22;10116;53.112;7.356;2022-12-07T06:27:19;26.00;53.90
19908;DHT22;10116;53.112;7.356;2022-12-07T06:29:44;26.00;53.90
19908;DHT22;10116;53.112;7.356;2022-12-07T06:32:10;26.00;53.20
19908;DHT22;10116;53.112;7.356;2022-12-07T06:34:36;26.00;53.80
19908;DHT22;10116;53.112;7.356;2022-12-07T06:37:02;26.10;54.10
19908;DHT22;10116;53.112;7.356;2022-12-07T06:39:28;26.10;53.70
19908;DHT22;10116;53.112;7.356;2022-12-07T06:41:55;26.10;54.10
19908;DHT22;10116;53.112;7.356;2022-12-07T06:44:21;26.10;54.30
19908;DHT22;10116;53.112;7.356;2022-12-07T06:46:48;26.10;54.40
19908;DHT22;10116;53.112;7.356;2022-12-07T06:49:14;26.20;54.00
19908;DHT22;10116;53.112;7.356;2022-12-07T06:51:40;26.20;54.50
19908;DHT22;10116;53.112;7.356;2022-12-07T06:54:13;26.20;53.80
19908;DHT22;10116;53.112;7.356;2022-12-07T06:56:39;26.20;53.60
19908;DHT22;10116;53.112;7.356;2022-12-07T06:59:06;25.20;42.70
19908;DHT22;10116;53.112;7.356;2022-12-07T07:01:33;24.10;28.50
19908;DHT22;10116;53.112;7.356;2022-12-07T07:03:59;24.00;28.20
19908;DHT22;10116;53.112;7.356;2022-12-07T07:06:24;24.00;28.30
19908;DHT22;10116;53.112;7.356;2022-12-07T07:08:50;24.10;28.50
19908;DHT22;10116;53.112;7.356;2022-12-07T07:11:16;23.80;28.10
19908;DHT22;10116;53.112;7.356;2022-12-07T07:13:42;23.80;25.60
19908;DHT22;10116;53.112;7.356;2022-12-07T07:16:08;24.00;38.90
19908;DHT22;10116;53.112;7.356;2022-12-07T07:18:34;24.10;28.50
19908;DHT22;10116;53.112;7.356;2022-12-07T07:21:00;24.20;28.70
19908;DHT22;10116;53.112;7.356;2022-12-07T07:23:26;24.40;29.10
19908;DHT22;10116;53.112;7.356;2022-12-07T07:25:52;24.50;31.20
19908;DHT22;10116;53.112;7.356;2022-12-07T07:28:17;24.60;32.20
19908;DHT22;10116;53.112;7.356;2022-12-07T07:30:43;24.70;35.00
19908;DHT22;10116;53.112;7.356;2022-12-07T07:33:10;24.80;35.60
19908;DHT22;10116;53.112;7.356;2022-12-07T07:35:36;24.90;36.10
19908;DHT22;10116;53.112;7.356;2022-12-07T07:38:02;25.00;37.40
19908;DHT22;10116;53.112;7.356;2022-12-07T07:40:28;25.00;37.70
19908;DHT22;10116;53.112;7.356;2022-12-07T07:42:57;25.00;38.20
19908;DHT22;10116;53.112;7.356;2022-12-07T07:45:25;25.00;37.80
19908;DHT22;10116;53.112;7.356;2022-12-07T07:47:51;25.00;38.30
19908;DHT22;10116;53.112;7.356;2022-12-07T07:50:17;25.00;38.10
19908;DHT22;10116;53.112;7.356;2022-12-07T07:52:43;24.80;34.80
19908;DHT22;10116;53.112;7.356;2022-12-07T07:55:09;24.50;31.10
19908;DHT22;10116;53.112;7.356;2022-12-07T07:57:36;24.40;29.30
19908;DHT22;10116;53.112;7.356;2022-12-07T08:00:03;24.30;29.00
19908;DHT22;10116;53.112;7.356;2022-12-07T08:02:30;24.30;28.60
19908;DHT22;10116;53.112;7.356;2022-12-07T08:04:56;24.20;28.70
19908;DHT22;10116;53.112;7.356;2022-12-07T08:07:22;24.20;28.60
19908;DHT22;10116;53.112;7.356;2022-12-07T08:09:47;24.10;28.40
19908;DHT22;10116;53.112;7.356;2022-12-07T08:12:13;24.10;28.60
19908;DHT22;10116;53.112;7.356;2022-12-07T08:14:38;24.10;28.50
19908;DHT22;10116;53.112;7.356;2022-12-07T08:17:04;24.20;28.70
19908;DHT22;10116;53.112;7.356;2022-12-07T08:19:30;24.30;28.90
19908;DHT22;10116;53.112;7.356;2022-12-07T08:21:55;24.30;30.90
19908;DHT22;10116;53.112;7.356;2022-12-07T08:24:22;24.40;30.50
19908;DHT22;10116;53.112;7.356;2022-12-07T08:26:48;24.40;31.30
19908;DHT22;10116;53.112;7.356;2022-12-07T08:29:15;24.50;33.20
19908;DHT22;10116;53.112;7.356;2022-12-07T08:31:40;24.50;33.40
19908;DHT22;10116;53.112;7.356;2022-12-07T08:34:06;24.60;35.30
19908;DHT22;10116;53.112;7.356;2022-12-07T08:36:32;24.70;35.60
19908;DHT22;10116;53.112;7.356;2022-12-07T08:38:57;24.80;36.70
19908;DHT22;10116;53.112;7.356;2022-12-07T08:41:23;24.80;37.90
19908;DHT22;10116;53.112;7.356;2022-12-07T08:43:48;24.90;38.20
19908;DHT22;10116;53.112;7.356;2022-12-07T08:49:11;25.00;39.10
19908;DHT22;10116;53.112;7.356;2022-12-07T08:51:37;25.00;39.30
19908;DHT22;10116;53.112;7.356;2022-12-07T08:54:06;25.10;39.70
19908;DHT22;10116;53.112;7.356;2022-12-07T08:56:33;25.10;40.10
19908;DHT22;10116;53.112;7.356;2022-12-07T08:58:59;25.10;39.90
19908;DHT22;10116;53.112;7.356;2022-12-07T09:01:25;25.10;40.20
19908;DHT22;10116;53.112;7.356;2022-12-07T09:03:50;25.10;40.60
19908;DHT22;10116;53.112;7.356;2022-12-07T09:06:16;25.20;40.60
19908;DHT22;10116;53.112;7.356;2022-12-07T09:08:47;25.20;40.70
19908;DHT22;10116;53.112;7.356;2022-12-07T09:11:15;25.20;40.90
19908;DHT22;10116;53.112;7.356;2022-12-07T09:13:40;25.20;41.40
19908;DHT22;10116;53.112;7.356;2022-12-07T09:16:06;25.20;40.80
19908;DHT22;10116;53.112;7.356;2022-12-07T09:18:32;25.20;41.90
19908;DHT22;10116;53.112;7.356;2022-12-07T09:20:57;25.30;42.90
19908;DHT22;10116;53.112;7.356;2022-12-07T09:23:23;25.40;43.10
19908;DHT22;10116;53.112;7.356;2022-12-07T09:25:49;25.40;44.10
19908;DHT22;10116;53.112;7.356;2022-12-07T09:28:14;25.50;44.70
19908;DHT22;10116;53.112;7.356;2022-12-07T09:30:48;25.60;45.20
19908;DHT22;10116;53.112;7.356;2022-12-07T09:33:14;25.60;45.00
19908;DHT22;10116;53.112;7.356;2022-12-07T09:35:50;25.60;45.60
19908;DHT22;10116;53.112;7.356;2022-12-07T09:38:17;25.60;44.50
19908;DHT22;10116;53.112;7.356;2022-12-07T09:40:43;25.60;44.70
19908;DHT22;10116;53.112;7.356;2022-12-07T09:43:21;25.60;44.50
19908;DHT22;10116;53.112;7.356;2022-12-07T09:45:52;25.50;43.00
19908;DHT22;10116;53.112;7.356;2022-12-07T09:48:45;25.40;42.80
19908;DHT22;10116;53.112;7.356;2022-12-07T09:51:21;25.40;43.10
19908;DHT22;10116;53.112;7.356;2022-12-07T09:53:48;25.40;43.70
19908;DHT22;10116;53.112;7.356;2022-12-07T09:56:15;25.50;44.70
19908;DHT22;10116;53.112;7.356;2022-12-07T09:58:42;25.50;45.60
19908;DHT22;10116;53.112;7.356;2022-12-07T10:03:39;25.10;39.70
19908;DHT22;10116;53.112;7.356;2022-12-07T10:06:06;25.10;39.30
19908;DHT22;10116;53.112;7.356;2022-12-07T10:08:32;25.10;39.60
19908;DHT22;10116;53.112;7.356;2022-12-07T10:10:59;25.10;39.80
19908;DHT22;10116;53.112;7.356;2022-12-07T10:13:39;25.20;40.20
19908;DHT22;10116;53.112;7.356;2022-12-07T10:16:06;25.20;41.10
19908;DHT22;10116;53.112;7.356;2022-12-07T10:21:16;25.30;42.10
19908;DHT22;10116;53.112;7.356;2022-12-07T10:29:16;25.40;43.00
19908;DHT22;10116;53.112;7.356;2022-12-07T10:31:44;25.40;42.90
19908;DHT22;10116;53.112;7.356;2022-12-07T10:34:28;25.40;42.80
19908;DHT22;10116;53.112;7.356;2022-12-07T10:39:57;25.50;44.60
19908;DHT22;10116;53.112;7.356;2022-12-07T10:42:31;25.60;46.00
19908;DHT22;10116;53.112;7.356;2022-12-07T10:58:56;25.60;48.10
19908;DHT22;10116;53.112;7.356;2022-12-07T11:07:10;25.70;47.80
19908;DHT22;10116;53.112;7.356;2022-12-07T11:09:56;25.60;47.30
19908;DHT22;10116;53.112;7.356;2022-12-07T11:18:03;25.60;47.80
19908;DHT22;10116;53.112;7.356;2022-12-07T11:26:31;25.50;46.40
19908;DHT22;10116;53.112;7.356;2022-12-07T11:32:10;25.50;46.20
19908;DHT22;10116;53.112;7.356;2022-12-07T11:37:19;25.50;46.20
19908;DHT22;10116;53.112;7.356;2022-12-07T11:39:51;25.50;58.10
19908;DHT22;10116;53.112;7.356;2022-12-07T11:42:24;25.50;46.60
19908;DHT22;10116;53.112;7.356;2022-12-07T11:44:52;25.50;46.20
19908;DHT22;10116;53.112;7.356;2022-12-07T11:55:50;25.50;45.60
19908;DHT22;10116;53.112;7.356;2022-12-07T12:01:07;25.60;47.10
19908;DHT22;10116;53.112;7.356;2022-12-07T12:03:38;25.60;46.60
19908;DHT22;10116;53.112;7.356;2022-12-07T12:06:05;25.70;48.00
19908;DHT22;10116;53.112;7.356;2022-12-07T12:08:42;25.70;47.80
19908;DHT22;10116;53.112;7.356;2022-12-07T12:16:43;25.70;46.90
19908;DHT22;10116;53.112;7.356;2022-12-07T12:21:39;25.70;47.00
19908;DHT22;10116;53.112;7.356;2022-12-07T12:24:15;25.70;46.00
19908;DHT22;10116;53.112;7.356;2022-12-07T12:27:03;25.70;46.30
19908;DHT22;10116;53.112;7.356;2022-12-07T12:29:36;25.70;46.60
19908;DHT22;10116;53.112;7.356;2022-12-07T12:32:13;25.70;46.60
19908;DHT22;10116;53.112;7.356;2022-12-07T12:42:53;25.60;46.40
19908;DHT22;10116;53.112;7.356;2022-12-07T12:45:32;25.60;45.40
19908;DHT22;10116;53.112;7.356;2022-12-07T12:48:26;25.60;45.90
19908;DHT22;10116;53.112;7.356;2022-12-07T12:54:04;25.60;45.50
19908;DHT22;10116;53.112;7.356;2022-12-07T12:59:29;25.60;44.80
19908;DHT22;10116;53.112;7.356;2022-12-07T13:07:52;25.60;44.90
19908;DHT22;10116;53.112;7.356;2022-12-07T13:13:29;25.70;45.90
19908;DHT22;10116;53.112;7.356;2022-12-07T13:26:23;25.80;45.90
19908;DHT22;10116;53.112;7.356;2022-12-07T13:31:41;25.80;45.70
19908;DHT22;10116;53.112;7.356;2022-12-07T13:34:36;25.80;45.40
19908;DHT22;10116;53.112;7.356;2022-12-07T13:37:15;25.70;45.40
19908;DHT22;10116;53.112;7.356;2022-12-07T13:39:52;25.70;44.60
19908;DHT22;10116;53.112;7.356;2022-12-07T13:42:27;25.60;44.20
19908;DHT22;10116;53.112;7.356;2022-12-07T13:44:54;25.60;44.10
19908;DHT22;10116;53.112;7.356;2022-12-07T13:47:34;25.60;44.10
19908;DHT22;10116;53.112;7.356;2022-12-07T13:50:00;25.60;43.70
19908;DHT22;10116;53.112;7.356;2022-12-07T13:52:30;25.60;43.70
19908;DHT22;10116;53.112;7.356;2022-12-07T13:57:33;25.60;43.00
19908;DHT22;10116;53.112;7.356;2022-12-07T14:00:04;25.60;43.90
19908;DHT22;10116;53.112;7.356;2022-12-07T14:02:34;25.50;42.70
19908;DHT22;10116;53.112;7.356;2022-12-07T14:08:03;25.50;43.00
19908;DHT22;10116;53.112;7.356;2022-12-07T14:10:37;25.50;42.80
19908;DHT22;10116;53.112;7.356;2022-12-07T14:15:56;25.50;42.20
19908;DHT22;10116;53.112;7.356;2022-12-07T14:18:37;25.50;42.10
19908;DHT22;10116;53.112;7.356;2022-12-07T14:21:24;25.50;43.20
19908;DHT22;10116;53.112;7.356;2022-12-07T14:24:19;25.60;43.10
19908;DHT22;10116;53.112;7.356;2022-12-07T14:26:48;25.60;43.10
19908;DHT22;10116;53.112;7.356;2022-12-07T14:29:30;25.60;44.00
19908;DHT22;10116;53.112;7.356;2022-12-07T14:31:57;25.60;43.90
19908;DHT22;10116;53.112;7.356;2022-12-07T14:34:24;25.60;43.20
19908;DHT22;10116;53.112;7.356;2022-12-07T14:36:50;25.60;43.30
19908;DHT22;10116;53.112;7.356;2022-12-07T14:39:16;25.70;43.50
19908;DHT22;10116;53.112;7.356;2022-12-07T14:41:42;25.60;44.30
19908;DHT22;10116;53.112;7.356;2022-12-07T14:44:17;25.70;43.40
19908;DHT22;10116;53.112;7.356;2022-12-07T14:46:44;25.60;42.80
19908;DHT22;10116;53.112;7.356;2022-12-07T14:49:13;25.60;43.00
19908;DHT22;10116;53.112;7.356;2022-12-07T14:51:40;25.60;43.30
19908;DHT22;10116;53.112;7.356;2022-12-07T14:54:26;25.60;43.80
19908;DHT22;10116;53.112;7.356;2022-12-07T14:56:52;25.60;42.50
19908;DHT22;10116;53.112;7.356;2022-12-07T14:59:18;25.60;42.50
19908;DHT22;10116;53.112;7.356;2022-12-07T15:01:44;25.60;41.90
19908;DHT22;10116;53.112;7.356;2022-12-07T15:04:10;25.60;42.00
19908;DHT22;10116;53.112;7.356;2022-12-07T15:06:35;25.60;42.10
19908;DHT22;10116;53.112;7.356;2022-12-07T15:09:02;25.60;42.10
19908;DHT22;10116;53.112;7.356;2022-12-07T15:11:27;25.60;54.40
19908;DHT22;10116;53.112;7.356;2022-12-07T15:13:53;25.60;41.40
19908;DHT22;10116;53.112;7.356;2022-12-07T15:16:35;25.50;41.00
19908;DHT22;10116;53.112;7.356;2022-12-07T15:19:01;25.50;40.90
19908;DHT22;10116;53.112;7.356;2022-12-07T15:21:26;25.50;40.70
19908;DHT22;10116;53.112;7.356;2022-12-07T15:23:53;25.40;40.30
19908;DHT22;10116;53.112;7.356;2022-12-07T15:26:19;25.40;40.20
19908;DHT22;10116;53.112;7.356;2022-12-07T15:28:44;25.40;40.40
19908;DHT22;10116;53.112;7.356;2022-12-07T15:31:15;25.40;40.00
19908;DHT22;10116;53.112;7.356;2022-12-07T15:33:41;25.40;39.70
19908;DHT22;10116;53.112;7.356;2022-12-07T15:36:07;25.40;40.60
19908;DHT22;10116;53.112;7.356;2022-12-07T15:38:33;25.40;40.00
19908;DHT22;10116;53.112;7.356;2022-12-07T15:40:58;25.40;40.40
19908;DHT22;10116;53.112;7.356;2022-12-07T15:43:24;25.40;40.80
19908;DHT22;10116;53.112;7.356;2022-12-07T15:46:08;25.40;40.80
19908;DHT22;10116;53.112;7.356;2022-12-07T15:48:34;25.40;41.30
19908;DHT22;10116;53.112;7.356;2022-12-07T15:51:04;25.40;41.70
19908;DHT22;10116;53.112;7.356;2022-12-07T15:53:30;25.40;41.40
19908;DHT22;10116;53.112;7.356;2022-12-07T15:55:56;25.50;42.30
19908;DHT22;10116;53.112;7.356;2022-12-07T15:58:21;25.50;42.20
19908;DHT22;10116;53.112;7.356;2022-12-07T16:00:47;25.50;42.70
19908;DHT22;10116;53.112;7.356;2022-12-07T16:03:13;25.50;43.10
19908;DHT22;10116;53.112;7.356;2022-12-07T16:05:39;25.50;43.50
19908;DHT22;10116;53.112;7.356;2022-12-07T16:08:05;25.50;42.50
19908;DHT22;10116;53.112;7.356;2022-12-07T16:10:30;25.60;43.50
19908;DHT22;10116;53.112;7.356;2022-12-07T16:12:56;25.60;42.60
19908;DHT22;10116;53.112;7.356;2022-12-07T16:15:22;25.60;43.30
19908;DHT22;10116;53.112;7.356;2022-12-07T16:17:50;25.60;42.90
19908;DHT22;10116;53.112;7.356;2022-12-07T16:20:15;25.60;43.00
19908;DHT22;10116;53.112;7.356;2022-12-07T16:22:41;25.60;42.90
19908;DHT22;10116;53.112;7.356;2022-12-07T16:25:07;25.60;43.10
19908;DHT22;10116;53.112;7.356;2022-12-07T16:27:32;25.60;43.60
19908;DHT22;10116;53.112;7.356;2022-12-07T16:29:58;25.60;42.90
19908;DHT22;10116;53.112;7.356;2022-12-07T16:32:24;25.50;43.10
19908;DHT22;10116;53.112;7.356;2022-12-07T16:34:49;25.50;43.00
19908;DHT22;10116;53.112;7.356;2022-12-07T16:37:15;25.50;42.90
19908;DHT22;10116;53.112;7.356;2022-12-07T16:39:40;25.50;43.50
19908;DHT22;10116;53.112;7.356;2022-12-07T16:42:06;25.50;42.90
19908;DHT22;10116;53.112;7.356;2022-12-07T16:44:32;25.50;42.80
19908;DHT22;10116;53.112;7.356;2022-12-07T16:46:57;25.50;43.40
19908;DHT22;10116;53.112;7.356;2022-12-07T16:49:23;25.50;43.70
19908;DHT22;10116;53.112;7.356;2022-12-07T16:51:50;25.50;42.80
19908;DHT22;10116;53.112;7.356;2022-12-07T16:54:15;25.50;42.40
19908;DHT22;10116;53.112;7.356;2022-12-07T16:56:41;25.50;42.40
19908;DHT22;10116;53.112;7.356;2022-12-07T16:59:07;25.50;42.50
19908;DHT22;10116;53.112;7.356;2022-12-07T17:01:33;25.50;42.70
19908;DHT22;10116;53.112;7.356;2022-12-07T17:03:59;25.50;42.70
19908;DHT22;10116;53.112;7.356;2022-12-07T17:06:27;25.60;43.10
19908;DHT22;10116;53.112;7.356;2022-12-07T17:08:54;25.60;43.30
19908;DHT22;10116;53.112;7.356;2022-12-07T17:11:28;25.60;43.80
19908;DHT22;10116;53.112;7.356;2022-12-07T17:13:54;25.60;43.90
19908;DHT22;10116;53.112;7.356;2022-12-07T17:16:39;25.60;45.20
19908;DHT22;10116;53.112;7.356;2022-12-07T17:19:10;25.60;44.70
19908;DHT22;10116;53.112;7.356;2022-12-07T17:21:36;25.60;45.70
19908;DHT22;10116;53.112;7.356;2022-12-07T17:24:03;25.70;45.60
19908;DHT22;10116;53.112;7.356;2022-12-07T17:26:30;25.60;44.90
19908;DHT22;10116;53.112;7.356;2022-12-07T17:28:57;25.60;45.10
19908;DHT22;10116;53.112;7.356;2022-12-07T17:31:23;25.60;44.30
19908;DHT22;10116;53.112;7.356;2022-12-07T17:33:49;25.60;44.50
19908;DHT22;10116;53.112;7.356;2022-12-07T17:36:18;25.60;44.60
19908;DHT22;10116;53.112;7.356;2022-12-07T17:38:44;25.60;43.80
19908;DHT22;10116;53.112;7.356;2022-12-07T17:41:28;25.60;45.20
19908;DHT22;10116;53.112;7.356;2022-12-07T17:44:15;25.60;45.00
19908;DHT22;10116;53.112;7.356;2022-12-07T17:46:42;25.50;43.80
19908;DHT22;10116;53.112;7.356;2022-12-07T17:49:08;25.60;44.70
19908;DHT22;10116;53.112;7.356;2022-12-07T17:51:34;25.60;44.60
19908;DHT22;10116;53.112;7.356;2022-12-07T17:54:19;25.60;45.00
19908;DHT22;10116;53.112;7.356;2022-12-07T17:56:45;25.60;45.10
19908;DHT22;10116;53.112;7.356;2022-12-07T17:59:11;25.60;46.30
19908;DHT22;10116;53.112;7.356;2022-12-07T18:01:37;25.70;45.40
19908;DHT22;10116;53.112;7.356;2022-12-07T18:04:04;25.70;57.70
19908;DHT22;10116;53.112;7.356;2022-12-07T18:06:30;25.70;45.50